Time;durP1;ratioP1;P1;durP2;ratioP2;P2;SDS_P1;SDS_P2;PMS_P1;PMS_P2;Temp;Humidity;BMP_temperature;BMP_pressure;BME280_temperature;BME280_humidity;BME280_pressure;Samples;Min_cycle;Max_cycle;Signal;HPM_P1;HPM_P2
2023/11/21 00:03:43;;;;;;;18.80;13.70;;;;;;;7.99;94.39;98002.77;221521;1301;22613;-75
2023/11/21 00:08:49;;;;;;;19.40;15.20;;;;;;;7.95;94.30;98000.86;221628;1303;25190;-77
2023/11/21 00:13:51;;;;;;;20.40;16.10;;;;;;;7.90;94.49;98004.66;221588;1298;22600;-75
2023/11/21 00:18:54;;;;;;;19.90;15.60;;;;;;;7.87;94.62;98009.05;221493;1298;22965;-75
2023/11/21 00:23:56;;;;;;;15.70;12.40;;;;;;;7.88;94.97;98012.73;221475;1303;22715;-76
2023/11/21 00:28:58;;;;;;;18.10;11.70;;;;;;;7.87;94.40;98011.35;221628;1295;22645;-75
2023/11/21 00:34:02;;;;;;;11.50;8.90;;;;;;;7.86;94.49;98014.23;221538;1301;22593;-76
2023/11/21 00:39:05;;;;;;;9.80;7.00;;;;;;;7.87;94.41;98017.26;221499;1303;22664;-75
2023/11/21 00:44:08;;;;;;;7.10;4.70;;;;;;;7.87;94.12;98013.45;221622;1301;22661;-75
2023/11/21 00:49:11;;;;;;;6.90;4.60;;;;;;;7.86;93.89;98013.42;221668;1301;22576;-75
2023/11/21 00:54:13;;;;;;;7.00;4.50;;;;;;;7.84;93.82;98015.88;221527;1301;22576;-75
2023/11/21 00:59:15;;;;;;;5.50;4.50;;;;;;;7.82;93.64;98011.41;221682;1303;22760;-76
2023/11/21 01:04:17;;;;;;;7.50;5.20;;;;;;;7.80;93.38;98011.30;221631;1301;22560;-76
2023/11/21 01:09:19;;;;;;;9.10;5.50;;;;;;;7.77;93.41;98012.52;221510;1301;22579;-76
2023/11/21 01:14:21;;;;;;;7.40;5.00;;;;;;;7.75;93.63;98008.02;221643;1296;22651;-75
2023/11/21 01:19:23;;;;;;;7.30;5.00;;;;;;;7.73;93.52;98008.56;221674;1301;22585;-76
2023/11/21 01:24:26;;;;;;;6.80;4.70;;;;;;;7.72;93.43;98013.17;221381;1301;22586;-76
2023/11/21 01:29:28;;;;;;;7.00;5.10;;;;;;;7.71;93.34;98023.68;221665;1303;22703;-75
2023/11/21 01:34:30;;;;;;;7.80;5.20;;;;;;;7.70;93.17;98026.52;221580;1301;22588;-76
2023/11/21 01:39:33;;;;;;;7.30;4.70;;;;;;;7.70;93.20;98031.00;221521;1297;22579;-75
2023/11/21 01:44:35;;;;;;;6.50;4.30;;;;;;;7.70;93.38;98031.65;221569;1303;22627;-75
2023/11/21 01:49:37;;;;;;;6.60;4.60;;;;;;;7.70;93.00;98032.30;221215;1301;248423;-75
2023/11/21 01:54:42;;;;;;;8.30;4.90;;;;;;;7.70;92.69;98035.27;221555;1301;22679;-75
2023/11/21 01:59:45;;;;;;;5.00;4.50;;;;;;;7.70;92.87;98037.73;221428;1303;22584;-76
2023/11/21 02:04:47;;;;;;;6.50;4.60;;;;;;;7.70;92.59;98043.66;221635;1301;22578;-75
2023/11/21 02:09:49;;;;;;;5.80;3.70;;;;;;;7.69;92.55;98041.27;221648;1291;22571;-75
2023/11/21 02:14:51;;;;;;;4.90;4.10;;;;;;;7.65;92.49;98040.09;221614;1300;22652;-75
2023/11/21 02:19:54;;;;;;;5.90;4.30;;;;;;;7.61;92.35;98035.23;221561;1301;22575;-75
2023/11/21 02:24:57;;;;;;;7.20;5.40;;;;;;;7.60;92.59;98035.62;221681;1303;25384;-76
2023/11/21 02:30:00;;;;;;;6.60;5.10;;;;;;;7.58;92.61;98034.23;221631;1301;22634;-75
2023/11/21 02:35:07;;;;;;;6.30;4.90;;;;;;;7.55;92.14;98030.13;221543;1301;22601;-77
2023/11/21 02:40:12;;;;;;;8.40;5.10;;;;;;;7.51;92.36;98030.68;221675;1301;22572;-74
2023/11/21 02:45:16;;;;;;;9.10;6.10;;;;;;;7.47;92.41;98031.85;221418;1303;25300;-75
2023/11/21 02:50:19;;;;;;;9.60;6.60;;;;;;;7.42;92.32;98034.91;221481;1303;22571;-75
2023/11/21 02:55:21;;;;;;;14.30;7.20;;;;;;;7.38;92.32;98039.38;221596;1301;22611;-75
2023/11/21 03:00:26;;;;;;;11.20;7.70;;;;;;;7.37;92.65;98046.52;221531;1301;22660;-76
2023/11/21 03:05:28;;;;;;;13.10;9.30;;;;;;;7.35;92.43;98052.15;221654;1301;24292;-75
2023/11/21 03:10:31;;;;;;;9.60;6.70;;;;;;;7.31;92.50;98053.19;221402;1303;22631;-75
2023/11/21 03:15:34;;;;;;;10.00;6.60;;;;;;;7.25;92.43;98051.75;221474;1301;22568;-75
2023/11/21 03:20:37;;;;;;;7.90;5.90;;;;;;;7.19;92.55;98057.13;221408;1303;22594;-75
2023/11/21 03:25:39;;;;;;;9.30;6.50;;;;;;;7.15;92.58;98052.74;221710;1298;22606;-76
2023/11/21 03:30:42;;;;;;;13.00;7.80;;;;;;;7.12;92.84;98056.27;221416;1303;22741;-75
2023/11/21 03:35:44;;;;;;;9.40;6.40;;;;;;;7.12;93.04;98062.35;221471;1301;22513;-76
2023/11/21 03:40:47;;;;;;;7.80;5.70;;;;;;;7.15;93.39;98062.30;221483;1301;22590;-75
2023/11/21 03:45:49;;;;;;;12.90;7.30;;;;;;;7.16;93.07;98062.39;221644;1301;22590;-76
2023/11/21 03:50:51;;;;;;;10.90;7.30;;;;;;;7.19;93.22;98057.00;221560;1298;22632;-76
2023/11/21 03:55:53;;;;;;;13.90;7.10;;;;;;;7.23;93.56;98051.29;221374;1303;22720;-76
2023/11/21 04:00:55;;;;;;;13.70;8.70;;;;;;;7.26;93.49;98056.66;221580;1301;22726;-76
2023/11/21 04:05:58;;;;;;;14.30;9.10;;;;;;;7.30;93.80;98059.11;221571;1301;22567;-76
2023/11/21 04:11:01;;;;;;;18.50;9.30;;;;;;;7.34;93.63;98067.02;221426;1303;22571;-75
2023/11/21 04:16:03;;;;;;;11.60;8.60;;;;;;;7.37;93.51;98073.39;221551;1303;22590;-75
2023/11/21 04:21:06;;;;;;;13.40;10.70;;;;;;;7.34;93.37;98074.54;221538;1301;22605;-76
2023/11/21 04:26:08;;;;;;;16.10;11.80;;;;;;;7.34;93.46;98077.33;221660;1301;22583;-76
2023/11/21 04:31:10;;;;;;;16.10;13.10;;;;;;;7.35;93.63;98084.08;221451;1302;22602;-75
2023/11/21 04:36:13;;;;;;;13.10;11.70;;;;;;;7.35;93.57;98090.19;221649;1301;24263;-76
2023/11/21 04:41:15;;;;;;;13.00;11.00;;;;;;;7.34;93.53;98090.34;221689;1301;22839;-76
2023/11/21 04:46:17;;;;;;;15.00;11.00;;;;;;;7.33;93.53;98098.33;221333;1301;22568;-76
2023/11/21 04:51:20;;;;;;;18.40;12.30;;;;;;;7.34;93.23;98099.87;221683;1301;22575;-76
2023/11/21 04:56:22;;;;;;;13.30;10.80;;;;;;;7.31;93.25;98100.32;221609;1302;25533;-77
2023/11/21 05:01:24;;;;;;;14.30;11.00;;;;;;;7.29;93.31;98103.73;221563;1303;26284;-77
2023/11/21 05:06:26;;;;;;;14.70;11.30;;;;;;;7.27;93.37;98105.10;221434;1300;22593;-76
2023/11/21 05:11:29;;;;;;;12.70;10.80;;;;;;;7.26;93.32;98103.19;221526;1303;22579;-75
2023/11/21 05:16:31;;;;;;;16.10;12.40;;;;;;;7.27;93.46;98106.82;221448;1303;22589;-76
2023/11/21 05:21:33;;;;;;;19.80;13.90;;;;;;;7.23;93.22;98106.90;221574;1301;22604;-76
2023/11/21 05:26:35;;;;;;;17.40;13.70;;;;;;;7.21;93.29;98106.27;221716;1298;22726;-77
2023/11/21 05:31:37;;;;;;;16.70;13.20;;;;;;;7.14;93.14;98108.34;221593;1298;22640;-76
2023/11/21 05:36:40;;;;;;;14.50;11.60;;;;;;;7.07;93.35;98111.95;221663;1299;22595;-76
2023/11/21 05:41:42;;;;;;;16.40;12.70;;;;;;;7.05;93.31;98114.02;221583;1303;22939;-75
2023/11/21 05:46:44;;;;;;;14.70;12.00;;;;;;;7.01;93.22;98118.24;221486;1303;23702;-77
2023/11/21 05:51:46;;;;;;;16.80;13.20;;;;;;;6.98;93.49;98125.36;221470;1301;22636;-76
2023/11/21 05:56:49;;;;;;;16.60;14.40;;;;;;;6.97;93.57;98129.23;221692;1300;22575;-76
2023/11/21 06:01:52;;;;;;;20.30;15.00;;;;;;;6.97;93.52;98135.27;221643;1301;22575;-76
2023/11/21 06:06:54;;;;;;;22.80;16.30;;;;;;;6.97;93.75;98144.30;221480;1303;22601;-76
2023/11/21 06:11:56;;;;;;;20.20;16.00;;;;;;;7.00;93.73;98146.98;221623;1303;22581;-75
2023/11/21 06:16:58;;;;;;;21.80;18.10;;;;;;;7.02;93.85;98147.10;221670;1299;25567;-76
2023/11/21 06:22:01;;;;;;;23.40;16.60;;;;;;;7.03;93.68;98149.73;221512;1302;22571;-77
2023/11/21 06:27:04;;;;;;;16.60;13.20;;;;;;;7.04;93.59;98149.31;221527;1303;22756;-75
2023/11/21 06:32:07;;;;;;;17.90;13.80;;;;;;;7.01;93.63;98152.92;221625;1293;25468;-76
2023/11/21 06:37:09;;;;;;;17.10;14.30;;;;;;;6.97;93.61;98155.85;221718;1299;25469;-75
2023/11/21 06:42:11;;;;;;;17.70;13.30;;;;;;;6.97;93.64;98162.23;221688;1301;22655;-75
2023/11/21 06:47:14;;;;;;;21.40;16.30;;;;;;;6.97;93.60;98171.65;221244;1285;24520;-76
2023/11/21 06:52:18;;;;;;;18.70;14.60;;;;;;;7.01;93.81;98181.84;221465;1282;22579;-76
2023/11/21 06:57:20;;;;;;;20.60;16.00;;;;;;;7.05;93.58;98181.52;221537;1302;27369;-79
2023/11/21 07:02:22;;;;;;;23.30;17.10;;;;;;;7.13;93.85;98184.84;221237;1282;22585;-80
2023/11/21 07:07:25;;;;;;;18.30;14.70;;;;;;;7.20;93.90;98177.94;221061;1285;24793;-80
2023/11/21 07:12:28;;;;;;;17.70;13.70;;;;;;;7.25;93.64;98182.95;220878;1282;22575;-78
2023/11/21 07:17:31;;;;;;;21.60;15.30;;;;;;;7.28;93.51;98183.02;220861;1280;22629;-77
2023/11/21 07:22:34;;;;;;;19.70;14.80;;;;;;;7.31;93.22;98186.70;220909;1280;22987;-78
2023/11/21 07:27:37;;;;;;;21.90;15.30;;;;;;;7.29;93.23;98185.54;220832;1288;22590;-80
2023/11/21 07:32:39;;;;;;;17.10;13.70;;;;;;;7.24;92.88;98190.73;220776;1291;22677;-81
2023/11/21 07:37:44;;;;;;;17.80;13.40;;;;;;;7.18;92.69;98199.79;220751;1288;24923;-80
2023/11/21 07:42:46;;;;;;;22.90;14.50;;;;;;;7.16;92.95;98202.66;220670;1303;22668;-79
2023/11/21 07:47:49;;;;;;;24.60;15.50;;;;;;;7.20;92.94;98199.90;220527;1294;22576;-80
2023/11/21 07:52:54;;;;;;;23.50;14.20;;;;;;;7.24;93.08;98202.80;220581;1280;23424;-80
2023/11/21 07:57:56;;;;;;;24.80;14.80;;;;;;;7.24;92.76;98204.05;220845;1288;22586;-78
2023/11/21 08:02:58;;;;;;;15.90;13.50;;;;;;;7.26;93.22;98209.52;221252;1283;25359;-76
2023/11/21 08:08:01;;;;;;;17.10;13.70;;;;;;;7.35;92.92;98212.64;221128;1288;22763;-77
2023/11/21 08:13:03;;;;;;;20.40;14.50;;;;;;;7.44;93.04;98215.80;221195;1292;24269;-77
2023/11/21 08:18:07;;;;;;;20.90;15.90;;;;;;;7.59;93.14;98216.55;220968;1282;22631;-77
2023/11/21 08:23:10;;;;;;;17.30;14.30;;;;;;;7.73;93.03;98216.48;221134;1285;22577;-77
2023/11/21 08:28:14;;;;;;;16.70;12.60;;;;;;;7.87;93.15;98221.02;221040;1291;22575;-76
2023/11/21 08:33:16;;;;;;;12.50;10.50;;;;;;;7.93;92.95;98223.60;221301;1288;22709;-77
2023/11/21 08:38:18;;;;;;;13.50;11.60;;;;;;;7.95;92.73;98232.81;221215;1285;22569;-77
2023/11/21 08:43:20;;;;;;;14.20;11.30;;;;;;;7.99;92.38;98237.48;221012;1280;22580;-77
2023/11/21 08:48:22;;;;;;;17.30;13.90;;;;;;;8.01;92.14;98239.80;221299;1295;22575;-79
2023/11/21 08:53:26;;;;;;;23.70;16.70;;;;;;;8.09;92.43;98235.48;221001;1280;22627;-77
2023/11/21 08:58:28;;;;;;;15.90;13.90;;;;;;;8.21;92.23;98238.97;220975;1297;22611;-79
2023/11/21 09:03:32;;;;;;;15.60;12.90;;;;;;;8.38;91.96;98239.84;220821;1284;22580;-76
2023/11/21 09:08:34;;;;;;;20.00;14.60;;;;;;;8.56;91.88;98237.17;220988;1282;22555;-78
2023/11/21 09:13:37;;;;;;;13.40;9.80;;;;;;;8.65;91.44;98235.50;220991;1283;25310;-77
2023/11/21 09:18:39;;;;;;;12.40;9.50;;;;;;;8.63;91.07;98239.45;220729;1282;22943;-76
2023/11/21 09:23:44;;;;;;;10.60;8.80;;;;;;;8.70;91.25;98242.08;220980;1279;22590;-75
2023/11/21 09:28:47;;;;;;;10.30;8.00;;;;;;;8.85;91.38;98242.33;220887;1291;22683;-79
2023/11/21 09:33:49;;;;;;;9.80;7.30;;;;;;;8.90;90.64;98240.07;221185;1282;24432;-76
2023/11/21 09:38:51;;;;;;;11.00;7.10;;;;;;;8.97;90.78;98234.84;221146;1288;22578;-81
2023/11/21 09:43:59;;;;;;;12.00;7.30;;;;;;;9.19;90.86;98230.06;220795;1281;24401;-80
2023/11/21 09:49:05;;;;;;;11.50;7.50;;;;;;;9.40;90.49;98228.36;221412;1280;24316;-80
2023/11/21 09:54:11;;;;;;;9.60;6.80;;;;;;;9.40;89.43;98224.84;221106;1295;22588;-80
2023/11/21 09:59:16;;;;;;;10.40;6.50;;;;;;;9.23;88.79;98225.59;221148;1279;22627;-80
2023/11/21 10:04:18;;;;;;;9.60;7.00;;;;;;;9.03;88.61;98224.79;221184;1289;22613;-79
2023/11/21 10:09:23;;;;;;;7.50;5.30;;;;;;;8.87;89.12;98236.23;221149;1291;22636;-78
2023/11/21 10:14:28;;;;;;;61.30;10.50;;;;;;;8.80;89.07;98236.41;220969;1281;22575;-77
2023/11/21 10:19:32;;;;;;;7.80;4.80;;;;;;;8.84;88.86;98240.02;221266;1295;24288;-79
2023/11/21 10:24:36;;;;;;;9.90;4.90;;;;;;;8.93;88.51;98234.33;221055;1285;22729;-78
2023/11/21 10:29:51;;;;;;;7.80;4.40;;;;;;;8.98;88.39;98237.30;221361;1295;22588;-78
2023/11/21 10:34:57;;;;;;;7.00;4.60;;;;;;;9.05;88.51;98239.13;221023;1285;24639;-78
2023/11/21 10:39:59;;;;;;;3.40;2.90;;;;;;;9.22;88.92;98237.18;221062;1282;22560;-78
2023/11/21 10:45:09;;;;;;;2.90;1.90;;;;;;;9.35;87.86;98236.34;221021;1298;22580;-78
2023/11/21 10:50:11;;;;;;;3.60;1.90;;;;;;;9.43;86.85;98236.91;221092;1301;22609;-76
2023/11/21 10:55:21;;;;;;;3.90;2.10;;;;;;;9.47;86.59;98237.51;220887;1288;22589;-80
2023/11/21 11:00:24;;;;;;;2.90;1.80;;;;;;;9.52;86.76;98236.95;221235;1279;22573;-84
2023/11/21 11:05:35;;;;;;;2.70;1.70;;;;;;;9.56;87.01;98233.61;221178;1296;24468;-81
2023/11/21 11:10:38;;;;;;;3.20;2.00;;;;;;;9.63;86.58;98234.30;221293;1297;26169;-83
2023/11/21 11:15:41;;;;;;;2.40;2.00;;;;;;;9.68;86.23;98231.40;221220;1296;22742;-80
2023/11/21 11:20:47;;;;;;;4.40;2.00;;;;;;;9.69;85.91;98232.58;220970;1303;23155;-83
2023/11/21 11:26:08;;;;;;;2.20;1.60;;;;;;;9.67;85.56;98227.93;221201;1285;22626;-81
2023/11/21 11:31:48;;;;;;;2.80;1.40;;;;;;;9.61;85.14;98231.33;221053;1292;22962;-81
2023/11/21 11:37:03;;;;;;;3.70;1.60;;;;;;;9.56;84.87;98235.40;221192;1292;25303;-81
2023/11/21 11:42:16;;;;;;;3.60;1.40;;;;;;;9.59;85.09;98233.71;221103;1282;23118;-81
2023/11/21 11:47:32;;;;;;;8.00;2.20;;;;;;;9.55;84.69;98234.86;221103;1295;22584;-81
2023/11/21 11:52:41;;;;;;;7.70;1.70;;;;;;;9.45;84.88;98242.44;220896;1288;22600;-81
2023/11/21 11:57:56;;;;;;;5.40;1.30;;;;;;;9.43;84.81;98243.11;221309;1292;22584;-80
2023/11/21 12:03:04;;;;;;;7.60;3.50;;;;;;;9.42;84.46;98243.92;220968;1298;22588;-82
2023/11/21 12:08:07;;;;;;;30.00;4.00;;;;;;;9.46;84.45;98243.54;221138;1289;22621;-82
2023/11/21 12:13:11;;;;;;;5.40;2.00;;;;;;;9.55;84.86;98248.73;221118;1280;23068;-82
2023/11/21 12:18:14;;;;;;;5.70;2.30;;;;;;;9.55;84.61;98242.08;221156;1295;22582;-81
2023/11/21 12:23:17;;;;;;;22.40;3.90;;;;;;;9.48;84.32;98245.10;220919;1282;22567;-82
2023/11/21 12:28:19;;;;;;;4.10;2.40;;;;;;;9.44;84.57;98244.05;221049;1288;22565;-82
2023/11/21 12:33:28;;;;;;;5.60;2.10;;;;;;;9.38;84.50;98243.60;221061;1285;22548;-82
2023/11/21 12:38:43;;;;;;;4.40;2.50;;;;;;;9.30;84.57;98241.73;221057;1288;24826;-82
2023/11/21 12:43:47;;;;;;;6.10;3.10;;;;;;;9.23;84.70;98242.45;221120;1285;22569;-80
2023/11/21 12:48:53;;;;;;;4.50;2.50;;;;;;;9.22;84.83;98246.33;220967;1282;22640;-80
2023/11/21 12:53:56;;;;;;;3.90;2.70;;;;;;;9.18;84.87;98246.81;221131;1285;22604;-80
2023/11/21 12:58:58;;;;;;;3.70;2.50;;;;;;;9.15;85.21;98253.15;220976;1298;22627;-81
2023/11/21 13:04:10;;;;;;;4.90;3.00;;;;;;;9.09;85.14;98259.27;220972;1288;24727;-81
2023/11/21 13:09:17;;;;;;;80.50;10.80;;;;;;;9.03;85.18;98262.75;221032;1289;24279;-82
2023/11/21 13:14:29;;;;;;;8.50;2.20;;;;;;;9.01;85.21;98257.30;220867;1280;22587;-82
2023/11/21 13:19:31;;;;;;;4.70;2.60;;;;;;;9.01;85.46;98259.98;221184;1291;22575;-81
2023/11/21 13:24:33;;;;;;;5.00;2.60;;;;;;;9.02;85.79;98266.75;221033;1283;22605;-82
2023/11/21 13:29:35;;;;;;;10.00;2.70;;;;;;;8.96;85.07;98266.57;221165;1292;22578;-81
2023/11/21 13:34:38;;;;;;;5.80;2.50;;;;;;;8.86;85.78;98265.92;220887;1285;25005;-82
2023/11/21 13:39:44;;;;;;;17.80;3.70;;;;;;;8.75;85.61;98270.77;221082;1285;22618;-81
2023/11/21 13:44:48;;;;;;;15.10;3.10;;;;;;;8.62;85.76;98274.70;220681;1294;22600;-81
2023/11/21 13:49:51;;;;;;;7.00;3.10;;;;;;;8.48;86.00;98282.83;220754;1299;201442;-81
2023/11/21 13:54:54;;;;;;;5.30;3.00;;;;;;;8.32;86.17;98285.52;221258;1298;22712;-82
2023/11/21 13:59:58;;;;;;;7.50;3.00;;;;;;;8.20;86.64;98286.25;221184;1298;22594;-82
2023/11/21 14:05:08;;;;;;;4.50;2.90;;;;;;;8.07;86.86;98286.91;221025;1298;22938;-82
2023/11/21 14:10:14;;;;;;;3.90;2.80;;;;;;;7.97;87.28;98290.04;221161;1299;22605;-83
2023/11/21 14:15:18;;;;;;;3.80;2.70;;;;;;;7.91;87.65;98290.42;221065;1298;22750;-82
2023/11/21 14:20:21;;;;;;;5.10;3.50;;;;;;;7.88;87.81;98292.25;221146;1295;25399;-83
2023/11/21 14:25:24;;;;;;;10.10;4.20;;;;;;;7.79;87.94;98296.10;220918;1294;22608;-81
2023/11/21 14:30:27;;;;;;;6.40;4.30;;;;;;;7.75;88.21;98298.34;221147;1301;22595;-82
2023/11/21 14:35:32;;;;;;;6.50;4.40;;;;;;;7.72;88.45;98300.94;220779;1285;22587;-79
2023/11/21 14:40:35;;;;;;;7.80;5.80;;;;;;;7.70;88.91;98303.84;220765;1288;22698;-77
2023/11/21 14:45:38;;;;;;;7.70;6.20;;;;;;;7.72;89.14;98307.81;220977;1285;24295;-76
2023/11/21 15:00:58;;;;;;;12.40;10.60;;;;;;;7.75;89.31;98315.70;221214;1293;22580;-77
2023/11/21 15:11:30;;;;;;;11.10;8.60;;;;;;;7.69;89.76;98323.80;221100;1298;22783;-77
2023/11/21 15:16:33;;;;;;;15.10;10.30;;;;;;;7.63;89.69;98323.59;221019;1301;25621;-77
2023/11/21 15:21:36;;;;;;;16.70;13.70;;;;;;;7.60;89.83;98327.78;220814;1303;22638;-78
2023/11/21 15:26:39;;;;;;;20.60;15.20;;;;;;;7.59;90.09;98332.33;221038;1301;22716;-77
2023/11/21 15:31:46;;;;;;;20.50;14.90;;;;;;;7.59;90.29;98334.98;221169;1303;22702;-79
2023/11/21 15:36:52;;;;;;;17.20;12.80;;;;;;;7.60;90.41;98337.28;221434;1303;22973;-78
2023/11/21 15:41:55;;;;;;;18.20;12.60;;;;;;;7.58;90.35;98340.77;221420;1303;22574;-77
2023/11/21 15:46:59;;;;;;;16.90;13.00;;;;;;;7.56;90.45;98354.10;221505;1303;22695;-76
2023/11/21 15:52:06;;;;;;;15.60;12.50;;;;;;;7.53;90.69;98358.30;221509;1303;22993;-78
2023/11/21 15:57:10;;;;;;;14.30;11.70;;;;;;;7.50;90.69;98360.91;221320;1303;22571;-77
2023/11/21 16:02:14;;;;;;;18.40;11.30;;;;;;;7.48;90.67;98366.25;221634;1301;22571;-77
2023/11/21 16:07:18;;;;;;;13.90;10.60;;;;;;;7.43;90.86;98372.59;221642;1301;22695;-77
2023/11/21 16:12:21;;;;;;;15.10;10.90;;;;;;;7.38;91.09;98377.75;221634;1303;25366;-75
2023/11/21 16:17:25;;;;;;;12.70;9.40;;;;;;;7.32;90.91;98389.58;221315;1303;22652;-77
2023/11/21 16:22:28;;;;;;;12.50;9.70;;;;;;;7.24;90.86;98391.59;221652;1295;22728;-76
2023/11/21 16:27:30;;;;;;;12.80;10.10;;;;;;;7.14;90.96;98401.67;221640;1302;22571;-77
2023/11/21 16:32:36;;;;;;;14.90;11.20;;;;;;;7.07;91.04;98411.13;221533;1302;24264;-78
2023/11/21 16:37:39;;;;;;;15.10;11.20;;;;;;;6.96;90.97;98411.95;221530;1301;22590;-77
2023/11/21 16:42:41;;;;;;;16.30;11.60;;;;;;;6.91;91.04;98421.46;221514;1302;22604;-78
2023/11/21 16:47:45;;;;;;;18.40;13.40;;;;;;;6.85;91.10;98428.41;221533;1303;22607;-77
2023/11/21 16:52:48;;;;;;;18.50;12.60;;;;;;;6.79;91.44;98431.62;221445;1289;22582;-78
2023/11/21 16:57:51;;;;;;;16.40;12.10;;;;;;;6.70;90.90;98435.04;221474;1302;22624;-78
2023/11/21 17:02:54;;;;;;;19.40;14.00;;;;;;;6.61;90.89;98438.00;221461;1303;22567;-77
2023/11/21 17:07:57;;;;;;;20.80;15.00;;;;;;;6.52;90.78;98444.11;221348;1303;22660;-78
2023/11/21 17:13:01;;;;;;;22.00;16.50;;;;;;;6.43;90.94;98447.69;221568;1303;22601;-78
2023/11/21 17:18:05;;;;;;;21.00;16.50;;;;;;;6.39;90.99;98460.83;221376;1303;22567;-76
2023/11/21 17:23:08;;;;;;;24.10;16.30;;;;;;;6.31;90.99;98471.90;221605;1301;22614;-76
2023/11/21 17:28:11;;;;;;;25.10;16.10;;;;;;;6.26;91.01;98477.45;221395;1303;22582;-79
2023/11/21 17:33:18;;;;;;;20.50;14.00;;;;;;;6.19;91.13;98483.64;221456;1303;22574;-78
2023/11/21 17:38:21;;;;;;;23.50;16.10;;;;;;;6.12;91.08;98482.07;221455;1301;22579;-78
2023/11/21 17:43:24;;;;;;;22.10;14.50;;;;;;;6.05;91.01;98488.32;221666;1301;22599;-77
2023/11/21 17:48:29;;;;;;;22.20;13.60;;;;;;;5.92;90.48;98494.45;221461;1301;22799;-77
2023/11/21 17:53:32;;;;;;;19.40;13.50;;;;;;;5.72;90.27;98506.29;221566;1301;23067;-77
2023/11/21 17:58:35;;;;;;;18.80;13.20;;;;;;;5.59;90.37;98510.69;221521;1301;22580;-78
2023/11/21 18:03:37;;;;;;;15.40;11.10;;;;;;;5.47;90.36;98516.19;221528;1301;22586;-78
2023/11/21 18:08:41;;;;;;;14.10;10.50;;;;;;;5.34;90.00;98528.08;221376;1303;22636;-78
2023/11/21 18:13:44;;;;;;;16.50;11.70;;;;;;;5.17;89.96;98536.98;221515;1298;27105;-77
2023/11/21 18:18:47;;;;;;;15.70;11.00;;;;;;;5.03;89.83;98542.46;221667;1303;22586;-78
2023/11/21 18:23:49;;;;;;;14.30;10.70;;;;;;;4.89;90.17;98553.19;221476;1303;25373;-77
2023/11/21 18:28:53;;;;;;;14.20;10.50;;;;;;;4.76;89.88;98558.52;221558;1299;22690;-78
2023/11/21 18:33:55;;;;;;;12.30;9.50;;;;;;;4.62;90.30;98576.30;221663;1301;22596;-77
2023/11/21 18:38:57;;;;;;;13.50;10.00;;;;;;;4.48;90.19;98581.59;221587;1301;22586;-76
2023/11/21 18:44:00;;;;;;;13.00;9.00;;;;;;;4.40;90.55;98588.73;221441;1302;24417;-77
2023/11/21 18:49:03;;;;;;;9.90;7.90;;;;;;;4.28;90.31;98591.67;221384;1303;22686;-78
2023/11/21 18:54:06;;;;;;;11.50;8.10;;;;;;;4.15;90.14;98602.84;221429;1303;23064;-79
2023/11/21 18:59:10;;;;;;;13.40;8.20;;;;;;;4.03;90.12;98606.20;221395;1301;24975;-77
2023/11/21 19:04:14;;;;;;;16.10;9.40;;;;;;;3.85;90.05;98614.77;221532;1295;25939;-79
2023/11/21 19:09:16;;;;;;;9.20;6.40;;;;;;;3.68;89.75;98622.53;221180;1303;24276;-79
2023/11/21 19:14:18;;;;;;;7.50;6.20;;;;;;;3.53;90.14;98632.35;221470;1301;23121;-79
2023/11/21 19:19:21;;;;;;;8.30;6.10;;;;;;;3.40;90.21;98639.51;221452;1303;23001;-79
2023/11/21 19:24:24;;;;;;;11.60;8.00;;;;;;;3.28;90.16;98650.40;221456;1301;22637;-79
2023/11/21 19:29:28;;;;;;;14.60;9.20;;;;;;;3.16;90.41;98667.32;221722;1301;24265;-79
2023/11/21 19:34:30;;;;;;;15.20;8.80;;;;;;;3.05;90.39;98675.83;221113;1303;22708;-78
2023/11/21 19:39:36;;;;;;;13.10;9.90;;;;;;;2.97;90.64;98682.36;221703;1303;22591;-81
2023/11/21 19:44:41;;;;;;;8.40;6.80;;;;;;;2.94;90.56;98690.66;221592;1303;22909;-79
2023/11/21 19:49:43;;;;;;;9.30;7.50;;;;;;;2.92;90.33;98699.55;221520;1303;22584;-77
2023/11/21 19:54:48;;;;;;;12.10;8.60;;;;;;;2.84;90.77;98704.40;221394;1303;22922;-77
2023/11/21 19:59:51;;;;;;;9.80;7.70;;;;;;;2.76;90.44;98716.27;221574;1301;22608;-78
2023/11/21 20:04:53;;;;;;;12.60;9.20;;;;;;;2.65;90.52;98731.77;221369;1303;22591;-81
2023/11/21 20:09:56;;;;;;;13.60;9.70;;;;;;;2.53;90.31;98742.45;221457;1302;22578;-79
2023/11/21 20:14:58;;;;;;;13.60;9.70;;;;;;;2.44;90.47;98750.16;221645;1303;23808;-79
2023/11/21 20:20:01;;;;;;;12.70;10.30;;;;;;;2.39;90.08;98755.32;221371;1303;22656;-78
2023/11/21 20:25:04;;;;;;;14.20;10.80;;;;;;;2.35;90.67;98765.79;221364;1303;22563;-80
2023/11/21 20:30:09;;;;;;;11.30;8.90;;;;;;;2.31;90.61;98776.73;221761;1298;22520;-80
2023/11/21 20:35:14;;;;;;;14.30;9.90;;;;;;;2.24;90.48;98779.65;221277;1303;22575;-77
2023/11/21 20:40:17;;;;;;;12.90;9.70;;;;;;;2.16;90.46;98793.01;221570;1301;22709;-78
2023/11/21 20:45:23;;;;;;;14.30;10.20;;;;;;;2.08;90.17;98796.13;221780;1302;24278;-78
2023/11/21 20:50:26;;;;;;;15.00;11.10;;;;;;;1.98;90.04;98799.77;221545;1298;22605;-79
2023/11/21 20:55:28;;;;;;;14.00;10.80;;;;;;;1.92;90.10;98813.16;222059;1297;22589;-78
2023/11/21 21:00:30;;;;;;;16.60;12.30;;;;;;;1.85;90.15;98816.95;221882;1303;22559;-78
2023/11/21 21:05:35;;;;;;;15.30;12.20;;;;;;;1.77;90.55;98825.77;221499;1280;22610;-78
2023/11/21 21:10:40;;;;;;;17.20;13.50;;;;;;;1.70;90.49;98827.86;221830;1303;22654;-79
2023/11/21 21:15:48;;;;;;;18.10;13.90;;;;;;;1.66;90.54;98836.59;221651;1303;22520;-79
2023/11/21 21:20:50;;;;;;;19.70;15.30;;;;;;;1.63;90.54;98851.28;221779;1297;22567;-79
2023/11/21 21:25:53;;;;;;;20.50;15.10;;;;;;;1.61;90.69;98865.81;221708;1301;26015;-79
2023/11/21 21:30:57;;;;;;;19.70;14.70;;;;;;;1.63;90.59;98873.98;221597;1298;22558;-79
2023/11/21 21:35:59;;;;;;;20.20;15.10;;;;;;;1.60;90.73;98880.72;221333;1303;22623;-78
2023/11/21 21:41:02;;;;;;;22.00;16.40;;;;;;;1.53;90.21;98888.51;221615;1301;24248;-77
2023/11/21 21:46:05;;;;;;;18.40;13.80;;;;;;;1.44;90.04;98899.91;221598;1303;22611;-78
2023/11/21 21:51:17;;;;;;;19.90;14.60;;;;;;;1.35;90.28;98909.26;221700;1301;24321;-78
2023/11/21 21:56:20;;;;;;;20.20;15.50;;;;;;;1.30;90.27;98917.73;221616;1301;22587;-77
2023/11/21 22:01:24;;;;;;;17.90;13.50;;;;;;;1.23;90.38;98926.61;221567;1298;22575;-77
2023/11/21 22:06:28;;;;;;;19.40;14.90;;;;;;;1.17;90.36;98927.34;221620;1303;22586;-78
2023/11/21 22:11:32;;;;;;;21.10;16.50;;;;;;;1.08;90.77;98931.46;221418;1302;22678;-78
2023/11/21 22:16:35;;;;;;;23.50;16.70;;;;;;;1.00;90.42;98936.48;221653;1299;22609;-78
2023/11/21 22:21:37;;;;;;;23.20;17.20;;;;;;;0.95;90.58;98937.77;221508;1301;22520;-77
2023/11/21 22:26:40;;;;;;;24.50;17.50;;;;;;;0.91;90.53;98945.69;221608;1303;22592;-77
2023/11/21 22:31:42;;;;;;;22.30;16.70;;;;;;;0.88;90.87;98946.86;221607;1301;22608;-77
2023/11/21 22:36:44;;;;;;;19.60;14.30;;;;;;;0.86;90.48;98951.14;221672;1301;23463;-78
2023/11/21 22:41:47;;;;;;;24.40;17.50;;;;;;;0.83;90.97;98958.30;221551;1301;22615;-77
2023/11/21 22:46:50;;;;;;;23.00;16.80;;;;;;;0.82;90.85;98965.33;221679;1301;22608;-77
2023/11/21 22:51:54;;;;;;;23.50;16.60;;;;;;;0.81;90.62;98971.69;221569;1301;22948;-77
2023/11/21 22:56:57;;;;;;;23.30;16.80;;;;;;;0.79;90.86;98977.92;221545;1303;22601;-77
2023/11/21 23:01:59;;;;;;;28.10;19.10;;;;;;;0.78;90.91;98981.45;221392;1302;22693;-76
2023/11/21 23:07:02;;;;;;;27.60;18.40;;;;;;;0.78;90.69;98992.18;221636;1301;22580;-77
2023/11/21 23:12:05;;;;;;;28.10;19.20;;;;;;;0.78;90.91;98997.05;221398;1303;22582;-77
2023/11/21 23:17:08;;;;;;;29.70;19.00;;;;;;;0.78;90.67;99001.92;221687;1303;22590;-77
2023/11/21 23:22:10;;;;;;;24.40;16.40;;;;;;;0.78;90.79;99003.48;221585;1303;22592;-77
2023/11/21 23:27:12;;;;;;;26.20;18.40;;;;;;;0.74;90.55;99014.92;221579;1303;22589;-77
2023/11/21 23:32:15;;;;;;;26.80;17.80;;;;;;;0.73;90.66;99028.49;221558;1285;22600;-77
2023/11/21 23:37:21;;;;;;;23.50;16.80;;;;;;;0.74;90.55;99033.46;221471;1298;28634;-77
2023/11/21 23:42:23;;;;;;;25.70;19.40;;;;;;;0.72;90.36;99039.31;221508;1298;22569;-77
2023/11/21 23:47:26;;;;;;;26.40;18.70;;;;;;;0.74;91.01;99038.61;221648;1298;22576;-76